Grimstrup, Denmark
Current Conditions -  °F | °C
As of 3:50 AM on Tuesday 23 Dec 2014 (Local Time) from EKEB Reporting Station
Broken Clouds Broken Clouds  
Wind Chill: 41°   Ceiling: 10000
Heat Index: 46°   Visibility: 6mi
Dew Point: 45°   Wind: 13mph
Humidity: 93%   Direction: 250°WSW
Pressure: 29.62"   Gusts: NA
Location:  55.53°N, 8.66°E
Report Text: EKEB 230250Z AUTO 25011KT 9999NDV SCT013/// BKN100///BKN170/// 08/07 Q1003
Loading
Personal Weather Stations






























Interactive Weather Map New forecast layout! Learn more

10-Day Weather Forecast

Advertisements
Track Severe Weather on mobile